Time;durP1;ratioP1;P1;durP2;ratioP2;P2;SDS_P1;SDS_P2;PMS_P1;PMS_P2;Temp;Humidity;BMP_temperature;BMP_pressure;BME280_temperature;BME280_humidity;BME280_pressure;Samples;Min_cycle;Max_cycle;Signal;HPM_P1;HPM_P2
2021/09/29 00:00:21;;;;;;;20.47;7.57;;;15.10;89.90;;;;;;5030889;28;20185;-74
2021/09/29 00:02:47;;;;;;;14.47;7.30;;;15.00;89.70;;;;;;5032096;28;20840;-74
2021/09/29 00:05:12;;;;;;;11.40;7.30;;;14.90;90.20;;;;;;5032274;28;20267;-74
2021/09/29 00:07:38;;;;;;;9.27;6.20;;;14.90;90.70;;;;;;5027194;28;20458;-74
2021/09/29 00:10:05;;;;;;;17.93;7.73;;;14.90;90.80;;;;;;5030237;28;20263;-75
2021/09/29 00:12:31;;;;;;;12.33;6.23;;;14.80;90.90;;;;;;5029633;28;20794;-73
2021/09/29 00:14:57;;;;;;;9.93;6.73;;;14.70;91.10;;;;;;5028259;28;20425;-74
2021/09/29 00:17:23;;;;;;;10.67;6.80;;;14.70;91.30;;;;;;5038621;28;20247;-72
2021/09/29 00:19:48;;;;;;;14.00;5.87;;;14.70;91.20;;;;;;5040807;28;20429;-74
2021/09/29 00:22:14;;;;;;;12.83;7.30;;;14.60;91.40;;;;;;5038934;28;20272;-74
2021/09/29 00:24:40;;;;;;;11.90;7.00;;;14.70;91.60;;;;;;5035045;28;20574;-72
2021/09/29 00:27:06;;;;;;;10.97;7.10;;;14.70;92.10;;;;;;5032384;28;20205;-75
2021/09/29 00:29:32;;;;;;;10.87;7.53;;;14.80;91.80;;;;;;5032199;28;20182;-76
2021/09/29 00:31:59;;;;;;;9.87;6.30;;;14.90;91.60;;;;;;5032816;28;20269;-75
2021/09/29 00:34:39;;;;;;;10.37;6.37;;;14.80;91.30;;;;;;5024826;28;20733;-74
2021/09/29 00:37:05;;;;;;;15.10;7.20;;;14.80;91.20;;;;;;5032974;28;20781;-74
2021/09/29 00:39:31;;;;;;;10.83;7.17;;;14.80;91.20;;;;;;5034537;28;20443;-74
2021/09/29 00:41:56;;;;;;;11.50;6.83;;;14.80;91.40;;;;;;5037801;28;20448;-74
2021/09/29 00:44:23;;;;;;;11.20;6.90;;;14.80;91.30;;;;;;5037826;28;20644;-74
2021/09/29 00:46:48;;;;;;;14.87;7.30;;;14.70;91.00;;;;;;5030130;28;20277;-75
2021/09/29 00:49:14;;;;;;;13.47;7.40;;;14.60;91.00;;;;;;5030429;28;20980;-75
2021/09/29 00:51:41;;;;;;;11.13;7.43;;;14.50;91.40;;;;;;5030837;28;20280;-75
2021/09/29 00:54:07;;;;;;;11.80;6.97;;;14.60;91.50;;;;;;5041524;28;20268;-73
2021/09/29 00:56:33;;;;;;;13.20;7.73;;;14.60;91.40;;;;;;5026067;28;20416;-77
2021/09/29 00:59:00;;;;;;;13.73;7.57;;;14.50;91.40;;;;;;5032504;28;20447;-76
2021/09/29 01:01:25;;;;;;;13.73;7.17;;;14.40;91.80;;;;;;5030876;28;20903;-73
2021/09/29 01:03:52;;;;;;;13.77;7.30;;;14.40;92.00;;;;;;5031603;28;20426;-74
2021/09/29 01:06:37;;;;;;;12.10;6.70;;;14.40;92.10;;;;;;5027837;28;20217;-76
2021/09/29 01:09:32;;;;;;;11.73;6.77;;;14.40;92.20;;;;;;5028987;28;20455;-74
2021/09/29 01:12:28;;;;;;;11.80;7.40;;;14.50;92.10;;;;;;5011239;28;20615;-74
2021/09/29 01:15:20;;;;;;;14.93;7.27;;;14.50;91.90;;;;;;5056690;28;20949;-75
2021/09/29 01:17:49;;;;;;;10.97;6.60;;;14.50;91.90;;;;;;5032563;28;20499;-72
2021/09/29 01:20:22;;;;;;;13.03;6.60;;;14.50;91.90;;;;;;5032513;28;20521;-72
2021/09/29 01:23:09;;;;;;;11.67;7.23;;;14.50;91.70;;;;;;5031326;28;20470;-73
2021/09/29 01:25:57;;;;;;;11.60;6.80;;;14.50;91.70;;;;;;5024819;28;20419;-72
2021/09/29 01:29:04;;;;;;;12.60;7.30;;;14.50;91.90;;;;;;5029977;28;20784;-73
2021/09/29 01:31:32;;;;;;;15.90;7.53;;;14.50;91.60;;;;;;5026582;28;21009;-73
2021/09/29 01:33:59;;;;;;;10.73;7.03;;;14.50;91.60;;;;;;5032239;28;20990;-74
2021/09/29 01:36:25;;;;;;;12.37;7.20;;;14.50;91.60;;;;;;5030954;28;20455;-74
2021/09/29 01:38:55;;;;;;;12.70;7.57;;;14.40;91.90;;;;;;5032426;28;20452;-74
2021/09/29 01:41:30;;;;;;;17.40;8.00;;;14.40;92.10;;;;;;5030676;28;20591;-75
2021/09/29 01:43:57;;;;;;;11.23;6.70;;;14.40;91.60;;;;;;5033517;28;20488;-76
2021/09/29 01:46:25;;;;;;;13.33;7.80;;;14.40;91.30;;;;;;5031190;28;20431;-75
2021/09/29 01:49:14;;;;;;;12.13;7.13;;;14.40;90.70;;;;;;5026614;28;20450;-72
2021/09/29 01:51:43;;;;;;;11.00;6.90;;;14.50;90.60;;;;;;5022949;28;20555;-74
2021/09/29 01:54:12;;;;;;;10.53;6.87;;;14.50;90.80;;;;;;5028522;28;20464;-74
2021/09/29 01:56:38;;;;;;;16.80;7.50;;;14.50;90.70;;;;;;5029593;28;20423;-74
2021/09/29 01:59:05;;;;;;;16.93;7.50;;;14.50;90.60;;;;;;5029224;28;20436;-74
2021/09/29 02:01:39;;;;;;;11.17;7.10;;;14.50;90.70;;;;;;5028400;28;20438;-74
2021/09/29 02:04:06;;;;;;;10.93;7.30;;;14.60;90.60;;;;;;5029550;28;20455;-73
2021/09/29 02:06:43;;;;;;;13.97;7.70;;;14.60;90.60;;;;;;5029819;28;20533;-74
2021/09/29 02:09:09;;;;;;;17.20;9.53;;;14.70;90.80;;;;;;5031382;28;20942;-74
2021/09/29 02:11:34;;;;;;;12.73;8.03;;;14.60;90.50;;;;;;5025990;28;20469;-74
2021/09/29 02:14:00;;;;;;;11.23;6.83;;;14.50;89.90;;;;;;5029501;28;20267;-73
2021/09/29 02:16:26;;;;;;;15.33;7.90;;;14.60;89.60;;;;;;5030983;28;20177;-75
2021/09/29 02:18:51;;;;;;;13.90;7.07;;;14.60;89.50;;;;;;5031330;28;20277;-74
2021/09/29 02:21:17;;;;;;;12.07;7.23;;;14.70;89.30;;;;;;5024077;28;20526;-73
2021/09/29 02:23:43;;;;;;;13.20;7.73;;;14.70;89.00;;;;;;5025895;28;20197;-74
2021/09/29 02:26:08;;;;;;;22.10;8.33;;;14.60;89.00;;;;;;5030202;28;20189;-74
2021/09/29 02:28:34;;;;;;;12.60;7.53;;;14.60;89.30;;;;;;5030358;28;20206;-74
2021/09/29 02:31:00;;;;;;;14.77;7.20;;;14.50;89.20;;;;;;5028751;28;20296;-72
2021/09/29 02:33:26;;;;;;;14.63;7.57;;;14.60;88.60;;;;;;5031675;28;20244;-73
2021/09/29 02:35:52;;;;;;;12.53;7.17;;;14.50;88.30;;;;;;5030004;28;20185;-73
2021/09/29 02:38:17;;;;;;;14.43;7.43;;;14.40;89.00;;;;;;5031552;28;20455;-73
2021/09/29 02:40:43;;;;;;;8.23;6.73;;;14.50;88.90;;;;;;5033125;28;20555;-73
2021/09/29 02:43:09;;;;;;;13.03;6.67;;;14.50;88.10;;;;;;5029903;28;20185;-75
2021/09/29 02:45:34;;;;;;;19.50;7.43;;;14.60;88.10;;;;;;5031153;28;20186;-74
2021/09/29 02:48:00;;;;;;;13.50;6.53;;;14.60;87.60;;;;;;5031218;28;20243;-74
2021/09/29 02:50:26;;;;;;;9.37;6.37;;;14.70;87.30;;;;;;5030818;28;20201;-73
2021/09/29 02:52:51;;;;;;;10.97;7.53;;;14.70;87.00;;;;;;5030425;28;20189;-72
2021/09/29 02:55:17;;;;;;;10.80;5.83;;;14.70;86.80;;;;;;5030442;28;20196;-73
2021/09/29 02:57:43;;;;;;;13.03;6.80;;;14.70;86.60;;;;;;5030854;28;20213;-73
2021/09/29 03:00:09;;;;;;;10.53;6.43;;;14.70;86.50;;;;;;5028921;28;20275;-74
2021/09/29 03:02:35;;;;;;;12.40;7.30;;;14.70;86.20;;;;;;5030769;28;20185;-73
2021/09/29 03:05:01;;;;;;;19.60;6.80;;;14.70;86.20;;;;;;5025154;28;20517;-72
2021/09/29 03:07:26;;;;;;;10.37;6.93;;;14.60;86.30;;;;;;5036412;28;20189;-73
2021/09/29 03:09:52;;;;;;;13.10;7.17;;;14.60;86.20;;;;;;5041041;28;20212;-73
2021/09/29 03:12:18;;;;;;;12.30;7.70;;;14.60;86.20;;;;;;5039800;28;20177;-75
2021/09/29 03:14:44;;;;;;;13.60;7.40;;;14.50;86.30;;;;;;5037325;28;20315;-74
2021/09/29 03:17:09;;;;;;;17.50;7.77;;;14.30;86.90;;;;;;5037740;28;20181;-73
2021/09/29 03:19:35;;;;;;;10.17;6.00;;;14.30;86.90;;;;;;5036840;28;20543;-73
2021/09/29 03:22:02;;;;;;;11.80;6.30;;;14.30;87.00;;;;;;5037445;28;20189;-74
2021/09/29 03:24:47;;;;;;;13.20;7.17;;;14.30;87.10;;;;;;5053608;28;20373;-73
2021/09/29 03:27:12;;;;;;;17.90;7.77;;;14.20;87.10;;;;;;5053415;28;20566;-74
2021/09/29 03:29:38;;;;;;;13.97;6.80;;;14.20;87.40;;;;;;5053064;28;20200;-74
2021/09/29 03:32:04;;;;;;;14.23;7.10;;;14.20;87.60;;;;;;5052080;28;20195;-74
2021/09/29 03:34:30;;;;;;;18.33;6.47;;;14.20;87.70;;;;;;5050938;28;20204;-74
2021/09/29 03:36:55;;;;;;;13.40;8.10;;;14.20;88.00;;;;;;5039250;28;20446;-75
2021/09/29 03:39:21;;;;;;;11.77;7.00;;;14.20;88.00;;;;;;5052082;28;20290;-75
2021/09/29 03:41:47;;;;;;;15.23;7.90;;;14.20;88.10;;;;;;5052593;28;20185;-73
2021/09/29 03:44:13;;;;;;;12.50;7.17;;;14.20;88.00;;;;;;5045476;28;20428;-74
2021/09/29 03:46:38;;;;;;;14.63;7.27;;;14.30;87.80;;;;;;5052623;28;20180;-74
2021/09/29 03:49:05;;;;;;;10.70;5.70;;;14.30;87.70;;;;;;5046935;28;20300;-74
2021/09/29 03:51:31;;;;;;;13.83;7.47;;;14.30;87.80;;;;;;5047610;28;20314;-75
2021/09/29 03:53:58;;;;;;;11.03;7.27;;;14.40;87.70;;;;;;5050849;28;20419;-74
2021/09/29 03:56:24;;;;;;;11.27;6.20;;;14.40;87.40;;;;;;5053800;28;20431;-74
2021/09/29 03:58:49;;;;;;;10.87;6.97;;;14.40;87.80;;;;;;5055101;28;20470;-75
2021/09/29 04:01:15;;;;;;;12.23;6.87;;;14.40;87.60;;;;;;5054035;28;20430;-75
2021/09/29 04:03:41;;;;;;;10.53;6.50;;;14.40;87.60;;;;;;5038632;28;20182;-73
2021/09/29 04:06:06;;;;;;;12.57;7.17;;;14.40;87.60;;;;;;5037586;28;20213;-72
2021/09/29 04:08:33;;;;;;;11.43;5.90;;;14.40;87.60;;;;;;5031054;28;20747;-73
2021/09/29 04:10:59;;;;;;;12.87;6.83;;;14.50;87.40;;;;;;5034455;28;20216;-73
2021/09/29 04:13:25;;;;;;;10.83;6.90;;;14.50;87.40;;;;;;5035687;28;20413;-74
2021/09/29 04:15:51;;;;;;;12.07;5.73;;;14.50;87.40;;;;;;5035193;28;20880;-73
2021/09/29 04:18:17;;;;;;;14.50;6.80;;;14.50;87.60;;;;;;5032968;28;20511;-74
2021/09/29 04:20:42;;;;;;;11.10;5.50;;;14.50;87.40;;;;;;5026996;28;20208;-73
2021/09/29 04:23:09;;;;;;;12.63;6.23;;;14.50;87.60;;;;;;5032095;28;20432;-74
2021/09/29 04:25:36;;;;;;;9.60;5.97;;;14.50;87.10;;;;;;5033576;28;20516;-73
2021/09/29 04:28:02;;;;;;;11.30;5.93;;;14.50;87.40;;;;;;5033253;28;20486;-74
2021/09/29 04:30:28;;;;;;;10.77;5.37;;;14.40;87.60;;;;;;5031412;28;20455;-73
2021/09/29 04:32:55;;;;;;;9.03;5.37;;;14.40;87.60;;;;;;5032032;28;20428;-73
2021/09/29 04:35:21;;;;;;;9.43;6.10;;;14.40;87.80;;;;;;5031939;28;20544;-73
2021/09/29 04:37:47;;;;;;;15.90;6.60;;;14.20;88.00;;;;;;5031937;28;20498;-73
2021/09/29 04:40:13;;;;;;;10.20;6.50;;;14.20;88.40;;;;;;5033116;28;20456;-72
2021/09/29 04:42:38;;;;;;;10.17;6.20;;;14.20;88.30;;;;;;5033317;28;20474;-73
2021/09/29 04:45:05;;;;;;;8.30;5.50;;;14.20;88.60;;;;;;5032710;28;20181;-74
2021/09/29 04:47:31;;;;;;;10.77;6.00;;;14.20;88.40;;;;;;5031597;28;20300;-73
2021/09/29 04:49:58;;;;;;;12.50;5.40;;;14.10;88.60;;;;;;5032936;28;20880;-73
2021/09/29 04:52:24;;;;;;;11.87;6.47;;;14.10;88.60;;;;;;5032699;28;20791;-74
2021/09/29 04:54:50;;;;;;;12.03;6.13;;;14.10;88.90;;;;;;5032533;28;20416;-74
2021/09/29 04:57:16;;;;;;;9.77;6.03;;;14.10;89.00;;;;;;5032391;28;20928;-74
2021/09/29 04:59:42;;;;;;;8.07;5.37;;;14.00;89.00;;;;;;5031644;28;20558;-73
2021/09/29 05:02:11;;;;;;;9.83;6.20;;;14.10;89.20;;;;;;5030541;28;20448;-72
2021/09/29 05:04:37;;;;;;;9.53;5.60;;;14.10;89.00;;;;;;5023515;28;20177;-74
2021/09/29 05:07:04;;;;;;;8.97;5.10;;;14.10;89.00;;;;;;5031119;28;20573;-72
2021/09/29 05:09:30;;;;;;;10.83;5.20;;;14.10;89.30;;;;;;5029225;28;20452;-74
2021/09/29 05:12:12;;;;;;;13.07;5.63;;;14.00;89.30;;;;;;5031636;28;20840;-73
2021/09/29 05:14:38;;;;;;;8.90;5.37;;;14.00;89.50;;;;;;5029496;28;20420;-73
2021/09/29 05:17:04;;;;;;;7.70;4.93;;;14.00;89.50;;;;;;5029692;28;20427;-73
2021/09/29 05:19:29;;;;;;;8.43;4.60;;;14.00;89.30;;;;;;5031080;28;20197;-73
2021/09/29 05:21:55;;;;;;;7.60;4.57;;;14.00;89.60;;;;;;5031435;28;20193;-73
2021/09/29 05:24:21;;;;;;;9.93;4.93;;;14.00;89.30;;;;;;5031508;28;20196;-74
2021/09/29 05:26:47;;;;;;;8.50;4.90;;;14.00;89.30;;;;;;5031983;28;20178;-74
2021/09/29 05:29:12;;;;;;;8.47;4.80;;;14.00;89.20;;;;;;5031134;28;20299;-74
2021/09/29 05:31:38;;;;;;;10.50;5.50;;;14.00;89.20;;;;;;5031169;28;20545;-74
2021/09/29 05:34:04;;;;;;;6.80;4.80;;;14.00;89.20;;;;;;5024072;28;20184;-74
2021/09/29 05:36:30;;;;;;;8.53;4.93;;;14.00;89.30;;;;;;5032775;28;20570;-74
2021/09/29 05:38:55;;;;;;;8.40;4.63;;;14.00;89.30;;;;;;5034200;28;20888;-74
2021/09/29 05:41:21;;;;;;;8.93;4.80;;;13.90;89.50;;;;;;5035012;28;20694;-72
2021/09/29 05:43:47;;;;;;;10.87;5.47;;;13.90;89.60;;;;;;5030548;28;20195;-75
2021/09/29 05:46:13;;;;;;;7.40;4.63;;;13.90;89.30;;;;;;5028201;28;21014;-74
2021/09/29 05:48:39;;;;;;;9.43;5.50;;;13.90;89.60;;;;;;5030388;28;21014;-75
2021/09/29 05:51:04;;;;;;;9.13;4.60;;;13.80;89.60;;;;;;5032099;28;20255;-76
2021/09/29 05:53:30;;;;;;;12.97;4.93;;;13.90;89.70;;;;;;5031946;28;20191;-76
2021/09/29 05:55:56;;;;;;;9.60;5.10;;;13.90;89.60;;;;;;5031949;28;20177;-75
2021/09/29 05:58:22;;;;;;;9.10;4.97;;;13.90;89.70;;;;;;5030208;28;20697;-73
2021/09/29 06:00:47;;;;;;;7.80;5.23;;;13.90;89.70;;;;;;5026354;28;20185;-74
2021/09/29 06:03:13;;;;;;;14.03;6.20;;;13.90;89.70;;;;;;5031895;28;20431;-74
2021/09/29 06:05:39;;;;;;;7.17;5.10;;;13.80;89.90;;;;;;5031942;28;20789;-75
2021/09/29 06:08:05;;;;;;;12.00;6.10;;;13.80;90.20;;;;;;5031708;28;20201;-75
2021/09/29 06:10:30;;;;;;;9.23;5.33;;;13.80;90.20;;;;;;5031973;28;20197;-75
2021/09/29 06:12:56;;;;;;;11.40;5.40;;;13.80;89.90;;;;;;5037882;28;20205;-76
2021/09/29 06:15:30;;;;;;;13.63;6.50;;;13.80;89.70;;;;;;5031232;28;20217;-75
2021/09/29 06:18:01;;;;;;;13.07;6.90;;;13.90;89.70;;;;;;5031442;28;20197;-74
2021/09/29 06:20:32;;;;;;;8.53;5.63;;;14.00;89.50;;;;;;5033277;28;20419;-77
2021/09/29 06:22:59;;;;;;;10.47;6.03;;;14.10;89.20;;;;;;5031596;28;20459;-74
2021/09/29 06:25:26;;;;;;;10.27;5.60;;;14.20;88.60;;;;;;5030405;28;20420;-77
2021/09/29 06:27:52;;;;;;;11.43;5.60;;;14.30;88.10;;;;;;5031321;28;20452;-74
2021/09/29 06:30:18;;;;;;;9.37;5.60;;;14.40;87.60;;;;;;5030125;28;20460;-74
2021/09/29 06:32:44;;;;;;;10.20;6.07;;;14.50;87.30;;;;;;5029166;28;20431;-74
2021/09/29 06:35:11;;;;;;;9.43;5.53;;;14.40;86.90;;;;;;5030555;28;20420;-74
2021/09/29 06:37:41;;;;;;;10.57;5.47;;;14.50;86.80;;;;;;5029275;28;20460;-75
2021/09/29 06:40:15;;;;;;;7.13;4.40;;;14.50;86.50;;;;;;5030230;28;20424;-74
2021/09/29 06:42:41;;;;;;;5.80;4.27;;;14.40;86.50;;;;;;5031006;28;20433;-74
2021/09/29 06:45:09;;;;;;;6.80;4.57;;;14.50;86.30;;;;;;5028402;28;20506;-74
2021/09/29 06:47:38;;;;;;;8.60;5.07;;;14.50;86.30;;;;;;5022885;28;20466;-74
2021/09/29 06:50:04;;;;;;;13.10;5.40;;;14.40;86.30;;;;;;5027571;28;20468;-73
2021/09/29 06:52:30;;;;;;;10.90;4.40;;;14.40;86.30;;;;;;5030160;28;20785;-74
2021/09/29 06:54:56;;;;;;;13.57;5.10;;;14.40;86.20;;;;;;5029411;28;20429;-75
2021/09/29 06:57:22;;;;;;;8.63;4.97;;;14.40;86.30;;;;;;5028454;28;20181;-73
2021/09/29 06:59:47;;;;;;;7.17;4.37;;;14.40;86.60;;;;;;5029201;28;20185;-74
2021/09/29 07:02:13;;;;;;;9.67;4.60;;;14.50;86.00;;;;;;5029862;28;20904;-73
2021/09/29 07:04:39;;;;;;;9.40;4.00;;;14.50;85.90;;;;;;5022389;28;20227;-74
2021/09/29 07:07:05;;;;;;;11.40;5.30;;;14.50;85.90;;;;;;5030140;28;20204;-74
2021/09/29 07:09:31;;;;;;;8.23;4.20;;;14.50;85.70;;;;;;5028278;28;20305;-74
2021/09/29 07:11:56;;;;;;;10.07;4.47;;;14.60;85.50;;;;;;5031404;28;20463;-74
2021/09/29 07:14:23;;;;;;;7.20;5.07;;;14.60;85.00;;;;;;5030669;28;20184;-74
2021/09/29 07:16:49;;;;;;;5.27;3.40;;;14.60;84.70;;;;;;5030333;28;20215;-74
2021/09/29 07:19:14;;;;;;;6.47;4.10;;;14.70;84.40;;;;;;5029574;28;20448;-74
2021/09/29 07:21:40;;;;;;;6.03;4.07;;;14.70;84.30;;;;;;5029885;28;20431;-74
2021/09/29 07:24:06;;;;;;;11.17;4.60;;;14.70;84.30;;;;;;5029164;28;20185;-74
2021/09/29 07:26:33;;;;;;;6.63;3.63;;;14.70;84.30;;;;;;5033077;28;20186;-74
2021/09/29 07:28:59;;;;;;;8.73;4.33;;;14.80;84.10;;;;;;5033038;28;20516;-73
2021/09/29 07:31:27;;;;;;;8.07;3.70;;;14.90;83.40;;;;;;5034005;28;20497;-73
2021/09/29 07:33:52;;;;;;;8.57;3.63;;;15.00;83.00;;;;;;5034559;28;20512;-74
2021/09/29 07:36:18;;;;;;;8.00;4.40;;;15.10;82.70;;;;;;5028427;28;20911;-74
2021/09/29 07:38:44;;;;;;;9.20;3.20;;;15.20;81.80;;;;;;5033151;28;20751;-74
2021/09/29 07:41:10;;;;;;;6.47;2.90;;;15.30;80.30;;;;;;5027699;28;20224;-74
2021/09/29 07:43:36;;;;;;;8.90;2.67;;;15.50;79.20;;;;;;5026335;28;20539;-74
2021/09/29 07:46:03;;;;;;;18.37;5.30;;;15.60;78.10;;;;;;5027274;28;20606;-74
2021/09/29 07:48:29;;;;;;;8.20;3.17;;;15.60;77.10;;;;;;5030534;28;20453;-73
2021/09/29 07:50:55;;;;;;;19.03;3.87;;;15.70;76.80;;;;;;5032466;28;20533;-73
2021/09/29 07:53:24;;;;;;;18.17;4.93;;;15.80;76.70;;;;;;5033053;28;20206;-74
2021/09/29 07:55:53;;;;;;;4.77;2.40;;;15.80;76.40;;;;;;5032404;28;20442;-73
2021/09/29 07:58:20;;;;;;;7.73;2.70;;;15.80;76.70;;;;;;5033103;28;20529;-73
2021/09/29 08:00:46;;;;;;;3.80;2.30;;;15.80;76.40;;;;;;5032046;28;20431;-74
2021/09/29 08:03:12;;;;;;;4.20;2.60;;;15.90;76.50;;;;;;5032810;28;20491;-72
2021/09/29 08:05:37;;;;;;;7.53;2.70;;;15.90;76.10;;;;;;5031415;28;20218;-75
2021/09/29 08:08:03;;;;;;;8.10;2.60;;;15.80;77.00;;;;;;5032780;28;20290;-74
2021/09/29 08:10:29;;;;;;;4.67;2.50;;;15.90;77.00;;;;;;5032106;28;20312;-73
2021/09/29 08:12:56;;;;;;;4.70;2.20;;;15.90;76.50;;;;;;5030984;28;20527;-73
2021/09/29 08:15:22;;;;;;;4.20;2.67;;;16.00;76.40;;;;;;5031383;28;20178;-74
2021/09/29 08:17:50;;;;;;;7.10;2.27;;;16.10;75.90;;;;;;5032704;28;20443;-74
2021/09/29 08:20:19;;;;;;;5.33;2.00;;;16.10;75.50;;;;;;5032368;28;20431;-73
2021/09/29 08:22:49;;;;;;;11.30;2.40;;;16.10;74.80;;;;;;5032495;28;20432;-73
2021/09/29 08:26:21;;;;;;;4.40;2.20;;;16.20;74.80;;;;;;5025076;28;20429;-74
2021/09/29 08:33:31;;;;;;;4.80;2.10;;;16.40;73.60;;;;;;5032595;28;20420;-73
2021/09/29 08:36:18;;;;;;;8.17;2.63;;;16.50;73.60;;;;;;5031603;28;20463;-73
2021/09/29 08:43:57;;;;;;;7.00;2.00;;;16.60;72.90;;;;;;5032903;28;20437;-73
2021/09/29 08:46:32;;;;;;;4.00;1.80;;;16.60;72.30;;;;;;5032116;28;20497;-74
2021/09/29 08:49:16;;;;;;;5.37;1.83;;;16.60;72.00;;;;;;5029465;28;20520;-74
2021/09/29 08:54:44;;;;;;;3.97;1.90;;;16.80;71.80;;;;;;5032656;28;20517;-74
2021/09/29 09:16:32;;;;;;;3.40;1.80;;;17.40;68.30;;;;;;5031508;28;20848;-73
2021/09/29 09:19:09;;;;;;;5.17;1.63;;;17.50;68.20;;;;;;5031137;28;20428;-74
2021/09/29 09:21:42;;;;;;;6.10;1.73;;;17.40;68.20;;;;;;5030638;28;20501;-74
2021/09/29 09:24:16;;;;;;;3.77;2.40;;;17.60;68.00;;;;;;5031443;28;20459;-75
2021/09/29 09:26:42;;;;;;;5.20;1.57;;;17.70;68.00;;;;;;5024748;28;20466;-74
2021/09/29 09:29:10;;;;;;;3.50;1.80;;;17.80;67.70;;;;;;5031376;28;20485;-74
2021/09/29 09:31:37;;;;;;;3.50;1.80;;;17.90;67.70;;;;;;5031639;28;20470;-73
2021/09/29 09:34:11;;;;;;;5.17;1.97;;;17.80;68.20;;;;;;5031274;28;20424;-74
2021/09/29 09:36:43;;;;;;;5.50;2.30;;;17.80;68.80;;;;;;5019407;28;20526;-73
2021/09/29 09:39:17;;;;;;;7.50;2.10;;;18.00;68.30;;;;;;5023383;28;20514;-74
2021/09/29 09:41:49;;;;;;;3.27;1.83;;;18.10;67.60;;;;;;5032498;28;20465;-74
2021/09/29 09:44:25;;;;;;;5.43;1.70;;;18.10;66.70;;;;;;5023997;28;20426;-75
2021/09/29 09:47:06;;;;;;;3.40;1.70;;;18.30;65.40;;;;;;5031036;28;20521;-75
2021/09/29 09:49:47;;;;;;;12.37;3.50;;;18.30;65.10;;;;;;5022323;28;20446;-75
2021/09/29 09:52:14;;;;;;;10.87;2.10;;;18.20;65.60;;;;;;5024821;28;20462;-74
2021/09/29 09:54:41;;;;;;;8.30;2.40;;;18.30;65.00;;;;;;5032043;28;20445;-73
2021/09/29 09:57:20;;;;;;;6.00;2.10;;;18.30;65.00;;;;;;5030895;28;20424;-73
2021/09/29 09:59:49;;;;;;;21.63;4.17;;;18.30;65.30;;;;;;5031068;28;20443;-75
2021/09/29 10:02:16;;;;;;;12.47;3.20;;;18.30;65.40;;;;;;5030774;28;20431;-74
2021/09/29 10:04:42;;;;;;;7.57;2.30;;;18.30;65.80;;;;;;5030369;28;20839;-75
2021/09/29 10:07:08;;;;;;;12.23;3.37;;;18.40;66.00;;;;;;5030662;28;20444;-75
2021/09/29 10:29:12;;;;;;;5.83;1.70;;;18.80;60.40;;;;;;4983738;28;20463;-73
2021/09/29 10:34:27;;;;;;;9.93;2.30;;;18.70;60.30;;;;;;4986912;28;20507;-74
2021/09/29 10:53:16;;;;;;;24.33;3.50;;;18.50;62.00;;;;;;4983188;28;20478;-73
2021/09/29 11:30:43;;;;;;;3.30;1.60;;;20.50;56.90;;;;;;5028820;28;20472;-74
2021/09/29 11:33:23;;;;;;;7.07;1.97;;;20.60;56.10;;;;;;5029490;28;20424;-74
2021/09/29 11:36:02;;;;;;;13.10;2.73;;;20.80;56.00;;;;;;5026119;28;20427;-74
2021/09/29 12:09:29;;;;;;;4.27;1.20;;;20.80;54.00;;;;;;5029610;28;20478;-73
2021/09/29 12:11:30;;;;;;;7.00;2.20;;;20.90;53.70;;;;;;5020053;28;20560;-73
2021/09/29 12:16:28;;;;;;;3.20;1.20;;;21.20;53.70;;;;;;5032938;28;20424;-74
2021/09/29 12:19:06;;;;;;;6.43;1.47;;;21.40;52.90;;;;;;5031443;28;20202;-75
2021/09/29 12:22:06;;;;;;;5.63;1.40;;;21.50;52.40;;;;;;5033568;28;20417;-73
2021/09/29 12:24:36;;;;;;;10.03;1.40;;;21.30;52.50;;;;;;5029754;28;20439;-75
2021/09/29 12:27:03;;;;;;;2.43;1.07;;;21.20;52.60;;;;;;5034453;28;20436;-74
2021/09/29 12:29:36;;;;;;;2.83;1.40;;;21.00;52.80;;;;;;5027693;28;20453;-75
2021/09/29 12:32:31;;;;;;;2.60;1.17;;;21.00;52.80;;;;;;5034957;28;20474;-73
2021/09/29 12:37:40;;;;;;;7.03;1.17;;;20.60;54.10;;;;;;5026054;28;20456;-75
2021/09/29 12:40:07;;;;;;;2.60;1.10;;;20.30;54.60;;;;;;5028105;28;20416;-74
2021/09/29 12:42:39;;;;;;;2.80;1.17;;;20.10;55.20;;;;;;5032078;28;20423;-74
2021/09/29 12:45:06;;;;;;;2.77;1.07;;;19.90;55.40;;;;;;5031306;28;20445;-74
2021/09/29 12:49:57;;;;;;;4.90;1.30;;;20.00;55.70;;;;;;5031938;28;20438;-74
2021/09/29 12:52:27;;;;;;;4.07;1.30;;;20.20;55.60;;;;;;5032036;28;20189;-74
2021/09/29 12:54:55;;;;;;;2.57;1.47;;;20.20;55.00;;;;;;5031377;28;20181;-75
2021/09/29 12:57:23;;;;;;;5.10;1.20;;;20.10;55.30;;;;;;5031805;28;20440;-75
2021/09/29 12:59:49;;;;;;;2.33;0.93;;;20.10;55.80;;;;;;5031901;28;20421;-73
2021/09/29 13:02:15;;;;;;;4.03;1.17;;;19.90;56.60;;;;;;5031578;28;20843;-75
2021/09/29 13:04:40;;;;;;;4.30;1.20;;;19.90;57.30;;;;;;5024657;28;20183;-75
2021/09/29 13:07:06;;;;;;;9.43;1.50;;;19.90;57.70;;;;;;5031671;28;20191;-73
2021/09/29 13:09:32;;;;;;;5.57;1.37;;;19.90;57.80;;;;;;5031685;28;20197;-75
2021/09/29 13:11:57;;;;;;;3.63;1.33;;;19.90;57.40;;;;;;5024187;28;20303;-75
2021/09/29 13:14:23;;;;;;;4.33;1.53;;;20.00;57.60;;;;;;5028305;28;20247;-74
2021/09/29 13:16:49;;;;;;;2.90;1.50;;;20.00;57.80;;;;;;5025324;28;20689;-74
2021/09/29 13:19:19;;;;;;;6.73;1.77;;;20.50;57.20;;;;;;5029402;28;20289;-75
2021/09/29 13:21:53;;;;;;;3.90;1.50;;;21.20;55.70;;;;;;5023981;28;20240;-74
2021/09/29 13:37:34;;;;;;;5.07;1.40;;;19.30;62.30;;;;;;5032626;28;20467;-75
2021/09/29 13:40:00;;;;;;;2.70;1.07;;;18.60;68.30;;;;;;5031173;28;20427;-76
2021/09/29 13:42:26;;;;;;;4.70;1.70;;;18.10;71.70;;;;;;5029944;28;20260;-75
2021/09/29 13:44:53;;;;;;;1.97;1.50;;;17.60;76.10;;;;;;5030970;28;20446;-75
2021/09/29 13:47:19;;;;;;;7.57;1.47;;;17.10;81.10;;;;;;5030478;28;20446;-73
2021/09/29 13:49:45;;;;;;;2.77;1.53;;;16.80;83.00;;;;;;5031514;28;20433;-75
2021/09/29 13:52:14;;;;;;;5.70;1.50;;;16.40;85.60;;;;;;5022637;28;20477;-75
2021/09/29 13:54:42;;;;;;;3.73;1.30;;;16.10;88.00;;;;;;5026980;28;20206;-75
2021/09/29 14:29:31;;;;;;;3.53;1.10;;;16.30;87.30;;;;;;5028982;28;20557;-75
2021/09/29 14:34:25;;;;;;;1.80;0.80;;;16.00;84.30;;;;;;5028359;28;20426;-74
2021/09/29 14:36:51;;;;;;;2.43;1.20;;;15.00;85.30;;;;;;5028334;28;20440;-75
2021/09/29 14:39:17;;;;;;;2.13;0.70;;;14.40;89.00;;;;;;5027667;28;20480;-75
2021/09/29 14:41:43;;;;;;;1.10;0.73;;;14.10;90.10;;;;;;5028289;28;20470;-75
2021/09/29 14:44:11;;;;;;;2.73;0.80;;;13.80;91.40;;;;;;5027640;28;20197;-75
2021/09/29 14:46:36;;;;;;;2.17;1.20;;;13.70;91.70;;;;;;5028379;28;20435;-77
2021/09/29 14:49:03;;;;;;;1.00;0.70;;;13.70;91.40;;;;;;5027661;28;20977;-74
2021/09/29 14:51:29;;;;;;;1.70;1.00;;;13.70;91.80;;;;;;5020293;28;20786;-76
2021/09/29 14:53:58;;;;;;;1.77;0.97;;;13.70;92.00;;;;;;5028560;28;20463;-75
2021/09/29 14:56:23;;;;;;;2.03;1.00;;;13.70;92.30;;;;;;5030350;28;20428;-74
2021/09/29 14:58:49;;;;;;;2.50;1.20;;;13.70;92.20;;;;;;5026549;28;20965;-75
2021/09/29 15:01:15;;;;;;;1.20;0.80;;;13.70;91.80;;;;;;5027828;28;20217;-75
2021/09/29 15:03:42;;;;;;;1.23;0.90;;;13.70;91.60;;;;;;5028492;28;20181;-75
2021/09/29 15:06:08;;;;;;;0.90;0.70;;;13.70;92.00;;;;;;5029962;28;20439;-75
2021/09/29 15:08:40;;;;;;;2.70;1.00;;;13.60;91.80;;;;;;5023715;28;20980;-75
2021/09/29 15:11:07;;;;;;;2.50;1.00;;;13.50;91.50;;;;;;5027612;28;20502;-74
2021/09/29 15:13:38;;;;;;;3.93;0.90;;;13.50;92.20;;;;;;5024637;28;20474;-76
2021/09/29 15:16:08;;;;;;;1.10;0.90;;;13.50;91.60;;;;;;5030095;28;20970;-74
2021/09/29 15:21:26;;;;;;;0.73;0.70;;;13.50;90.50;;;;;;5029732;28;20905;-74
2021/09/29 15:46:17;;;;;;;2.80;0.90;;;13.80;88.60;;;;;;5024459;28;20465;-74
2021/09/29 15:48:41;;;;;;;2.03;0.93;;;13.80;87.00;;;;;;5029753;28;20500;-76
2021/09/29 15:51:14;;;;;;;1.53;1.00;;;13.90;85.70;;;;;;5029064;28;20479;-76
2021/09/29 15:56:24;;;;;;;1.90;1.00;;;14.00;87.70;;;;;;5032290;28;20517;-75
2021/09/29 16:01:48;;;;;;;1.60;0.90;;;14.10;87.60;;;;;;4969302;28;20477;-75
2021/09/29 16:04:32;;;;;;;2.70;0.97;;;14.20;87.00;;;;;;4982669;28;20429;-74
2021/09/29 16:15:06;;;;;;;5.23;1.17;;;14.50;85.00;;;;;;4982030;28;20430;-73
2021/09/29 16:35:58;;;;;;;6.70;1.10;;;14.20;84.40;;;;;;4969095;28;20442;-74
2021/09/29 16:38:24;;;;;;;2.10;0.90;;;14.10;83.70;;;;;;4996069;28;20593;-73
2021/09/29 16:40:49;;;;;;;1.63;1.17;;;14.10;84.30;;;;;;5030883;28;20196;-75
2021/09/29 16:43:18;;;;;;;2.23;1.20;;;14.10;85.60;;;;;;5030945;28;20276;-75
2021/09/29 16:45:45;;;;;;;1.67;1.10;;;14.00;85.50;;;;;;5028581;28;20189;-74
2021/09/29 16:48:16;;;;;;;1.40;1.10;;;14.00;84.70;;;;;;5030051;28;20451;-72
2021/09/29 16:53:13;;;;;;;1.87;1.10;;;14.10;83.60;;;;;;5030111;28;20436;-75
2021/09/29 16:55:42;;;;;;;2.10;1.60;;;14.10;82.80;;;;;;5029538;28;20424;-73
2021/09/29 16:58:34;;;;;;;2.37;1.23;;;14.10;82.50;;;;;;5029692;28;20819;-74
2021/09/29 17:01:09;;;;;;;3.10;1.20;;;14.10;83.30;;;;;;5026478;28;20451;-74